createdAt,value
2023-08-04T00:00:00.239Z,17.5
2023-08-04T00:05:00.096Z,17.44
2023-08-04T00:10:00.132Z,17.44
2023-08-04T00:15:00.085Z,17.38
2023-08-04T00:20:00.118Z,17.38
2023-08-04T00:25:00.092Z,17.38
2023-08-04T00:30:00.168Z,17.38
2023-08-04T00:35:00.109Z,17.38
2023-08-04T00:40:00.110Z,17.38
2023-08-04T00:45:00.097Z,17.38
2023-08-04T00:50:00.125Z,17.38
2023-08-04T00:55:00.095Z,17.38
2023-08-04T01:00:00.132Z,17.38
2023-08-04T01:05:00.317Z,17.38
2023-08-04T01:10:00.182Z,17.38
2023-08-04T01:15:00.110Z,17.38
2023-08-04T01:20:00.140Z,17.38
2023-08-04T01:25:00.115Z,17.38
2023-08-04T01:30:00.142Z,17.38
2023-08-04T01:35:00.087Z,17.38
2023-08-04T01:40:00.128Z,17.38
2023-08-04T01:45:00.086Z,17.38
2023-08-04T01:50:00.150Z,17.44
2023-08-04T01:55:00.104Z,17.31
2023-08-04T02:00:00.146Z,17
2023-08-04T02:05:00.092Z,16.44
2023-08-04T02:10:00.141Z,15.94
2023-08-04T02:15:00.139Z,15.69
2023-08-04T02:20:00.119Z,15.56
2023-08-04T02:25:00.084Z,15.5
2023-08-04T02:30:00.148Z,15.5
2023-08-04T02:35:00.123Z,15.44
2023-08-04T02:40:00.153Z,15.5
2023-08-04T02:45:00.131Z,15.5
2023-08-04T02:50:00.147Z,15.5
2023-08-04T02:55:00.108Z,15.5
2023-08-04T03:00:00.171Z,15.5
2023-08-04T03:05:00.110Z,15.5
2023-08-04T03:10:00.131Z,15.5
2023-08-04T03:15:00.626Z,15.56
2023-08-04T03:20:00.160Z,15.56
2023-08-04T03:25:00.113Z,15.63
2023-08-04T03:30:00.247Z,15.69
2023-08-04T03:35:00.092Z,15.69
2023-08-04T03:40:00.100Z,15.69
2023-08-04T03:45:00.092Z,15.69
2023-08-04T03:50:01.935Z,15.63
2023-08-04T03:55:00.128Z,15.63
2023-08-04T04:00:00.119Z,15.63
2023-08-04T04:05:00.094Z,15.63
2023-08-04T04:10:00.128Z,15.63
2023-08-04T04:15:00.124Z,15.63
2023-08-04T04:20:00.131Z,15.69
2023-08-04T04:25:00.093Z,15.69
2023-08-04T04:30:00.236Z,15.69
2023-08-04T04:35:00.133Z,15.75
2023-08-04T04:40:00.100Z,15.81
2023-08-04T04:45:00.122Z,15.81
2023-08-04T04:50:00.136Z,15.81
2023-08-04T04:55:00.104Z,15.88
2023-08-04T05:00:00.166Z,15.88
2023-08-04T05:05:00.106Z,16
2023-08-04T05:10:00.132Z,16.06
2023-08-04T05:15:00.117Z,16.13
2023-08-04T05:20:00.121Z,16.06
2023-08-04T05:25:10.117Z,16.06
2023-08-04T05:30:00.207Z,16
2023-08-04T05:35:00.098Z,15.94
2023-08-04T05:40:00.104Z,15.94
2023-08-04T05:45:00.153Z,15.94
2023-08-04T05:50:00.179Z,15.94
2023-08-04T05:55:00.079Z,15.88
2023-08-04T06:00:00.136Z,15.94
2023-08-04T06:05:00.095Z,16
2023-08-04T06:10:00.192Z,16.13
2023-08-04T06:15:00.115Z,16.5
2023-08-04T06:20:00.113Z,17.06
2023-08-04T06:25:00.102Z,17.19
2023-08-04T06:30:00.201Z,17
2023-08-04T06:35:00.128Z,16.94
2023-08-04T06:40:00.107Z,17
2023-08-04T06:45:00.105Z,17.44
2023-08-04T06:50:00.172Z,17.63
2023-08-04T06:55:00.120Z,17.63
2023-08-04T07:00:00.236Z,17.56
2023-08-04T07:05:00.114Z,17.5
2023-08-04T07:10:00.159Z,17.31
2023-08-04T07:15:00.168Z,17.38
2023-08-04T07:20:00.183Z,17.5
2023-08-04T07:25:00.093Z,17.81
2023-08-04T07:30:00.227Z,17.75
2023-08-04T07:35:00.115Z,17.44
2023-08-04T07:40:00.127Z,17.31
2023-08-04T07:45:00.184Z,17
2023-08-04T07:50:00.176Z,17.06
2023-08-04T07:55:00.120Z,17.19
2023-08-04T08:00:00.215Z,17.63
2023-08-04T08:05:00.114Z,18.38
2023-08-04T08:10:00.149Z,18.69
2023-08-04T08:15:00.572Z,18.69
2023-08-04T08:20:00.123Z,18.44
2023-08-04T08:25:00.101Z,18.44
2023-08-04T08:30:00.195Z,18.25
2023-08-04T08:35:00.099Z,17.94
2023-08-04T08:40:00.101Z,17.88
2023-08-04T08:45:00.143Z,17.81
2023-08-04T08:50:00.140Z,18
2023-08-04T08:55:00.105Z,18.06
2023-08-04T09:00:00.196Z,17.69
2023-08-04T09:05:00.116Z,17.31
2023-08-04T09:10:00.183Z,17.13
2023-08-04T09:15:00.127Z,17.06
2023-08-04T09:20:00.136Z,17.19
2023-08-04T09:25:00.099Z,17.56
2023-08-04T09:30:00.146Z,18.56
2023-08-04T09:35:00.128Z,20.44
2023-08-04T09:40:00.124Z,22.13
2023-08-04T09:45:00.129Z,22.69
2023-08-04T09:50:00.213Z,22.44
2023-08-04T09:55:00.089Z,22.75
2023-08-04T10:00:00.206Z,23.31
2023-08-04T10:05:00.196Z,22.94
2023-08-04T10:10:00.237Z,22.19
2023-08-04T10:15:00.131Z,22.25
2023-08-04T10:20:00.161Z,22.69
2023-08-04T10:25:00.112Z,23
2023-08-04T10:30:00.204Z,22.94
2023-08-04T10:35:00.233Z,22.75
2023-08-04T10:40:00.099Z,22.38
2023-08-04T10:45:00.140Z,22.19
2023-08-04T10:50:00.222Z,22.88
2023-08-04T10:55:00.155Z,23
2023-08-04T11:00:00.193Z,23
2023-08-04T11:05:00.232Z,22.44
2023-08-04T11:10:00.147Z,22.56
2023-08-04T11:15:00.120Z,22.81
2023-08-04T11:20:00.200Z,22.81
2023-08-04T11:25:00.093Z,23.06
2023-08-04T11:30:00.142Z,23.25
2023-08-04T11:35:00.119Z,23.13
2023-08-04T11:40:00.110Z,22.69
2023-08-04T11:45:00.353Z,22.69
2023-08-04T11:50:00.213Z,23.31
2023-08-04T11:55:00.130Z,23.63
2023-08-04T12:00:00.193Z,23.56
2023-08-04T12:05:00.307Z,23.5
2023-08-04T12:10:00.147Z,23.69
2023-08-04T12:15:01.458Z,23.94
2023-08-04T12:20:00.125Z,24.5
2023-08-04T12:25:00.122Z,24.56
2023-08-04T12:30:00.215Z,24.31
2023-08-04T12:35:00.148Z,23.88
2023-08-04T12:40:00.166Z,23.75
2023-08-04T12:45:00.114Z,23.81
2023-08-04T12:50:00.203Z,23.5
2023-08-04T12:55:00.160Z,23.38
2023-08-04T13:00:00.181Z,23.25
2023-08-04T13:05:00.153Z,23.19
2023-08-04T13:10:00.171Z,23.38
2023-08-04T13:15:00.132Z,23.13
2023-08-04T13:20:00.181Z,23.19
2023-08-04T13:25:00.094Z,23.13
2023-08-04T13:30:00.182Z,23
2023-08-04T13:35:00.178Z,23.06
2023-08-04T13:40:00.142Z,23.13
2023-08-04T13:45:00.121Z,23.19
2023-08-04T13:50:00.174Z,23.5
2023-08-04T13:55:00.097Z,23.31
2023-08-04T14:00:00.238Z,23.06
2023-08-04T14:05:00.177Z,23
2023-08-04T14:10:00.142Z,23.06
2023-08-04T14:15:00.157Z,22.94
2023-08-04T14:20:00.214Z,22.81
2023-08-04T14:25:00.098Z,22.75
2023-08-04T14:30:00.183Z,22.5
2023-08-04T14:35:00.155Z,22.38
2023-08-04T14:40:00.113Z,22.44
2023-08-04T14:45:00.117Z,22.38
2023-08-04T14:50:00.188Z,22.5
2023-08-04T14:55:00.110Z,22.63
2023-08-04T15:00:00.548Z,22.69
2023-08-04T15:05:00.147Z,22.56
2023-08-04T15:10:00.179Z,22.5
2023-08-04T15:15:00.106Z,22.5
2023-08-04T15:20:00.271Z,22.38
2023-08-04T15:25:00.105Z,22.31
2023-08-04T15:30:00.190Z,22.38
2023-08-04T15:35:00.204Z,22.44
2023-08-04T15:40:00.129Z,22.63
2023-08-04T15:45:00.134Z,22.81
2023-08-04T15:50:00.162Z,22.81
2023-08-04T15:55:11.041Z,22.88
2023-08-04T16:00:00.185Z,22.88
2023-08-04T16:05:00.121Z,22.94
2023-08-04T16:10:00.175Z,22.69
2023-08-04T16:15:00.124Z,22.5
2023-08-04T16:20:00.179Z,22.56
2023-08-04T16:25:00.111Z,22.56
2023-08-04T16:30:00.241Z,22.5
2023-08-04T16:35:00.128Z,22.56
2023-08-04T16:40:00.130Z,22.69
2023-08-04T16:45:00.181Z,22.5
2023-08-04T16:50:00.424Z,22.56
2023-08-04T16:55:00.112Z,22.69
2023-08-04T17:00:00.278Z,22.63
2023-08-04T17:05:00.100Z,22.5
2023-08-04T17:10:00.140Z,22.44
2023-08-04T17:15:00.140Z,22.38
2023-08-04T17:20:00.128Z,22.19
2023-08-04T17:25:00.122Z,22.06
2023-08-04T17:30:00.198Z,22
2023-08-04T17:35:00.159Z,21.94
2023-08-04T17:40:00.159Z,21.63
2023-08-04T17:45:00.145Z,21.38
2023-08-04T17:50:00.138Z,21.13
2023-08-04T17:55:00.123Z,20.88
2023-08-04T18:00:00.243Z,20.69
2023-08-04T18:05:00.154Z,20.63
2023-08-04T18:10:00.136Z,20.44
2023-08-04T18:15:00.135Z,20.38
2023-08-04T18:20:00.128Z,20.25
2023-08-04T18:25:00.107Z,20.13
2023-08-04T18:30:00.213Z,20.06
2023-08-04T18:35:00.144Z,20
2023-08-04T18:40:00.179Z,19.94
2023-08-04T18:45:00.159Z,19.81
2023-08-04T18:50:00.135Z,19.69
2023-08-04T18:55:00.159Z,19.63
2023-08-04T19:00:00.177Z,19.56
2023-08-04T19:05:00.099Z,19.5
2023-08-04T19:10:00.144Z,19.44
2023-08-04T19:15:00.126Z,19.44
2023-08-04T19:20:00.125Z,19.38
2023-08-04T19:25:00.136Z,19.38
2023-08-04T19:30:00.188Z,19.38
2023-08-04T19:35:00.136Z,19.38
2023-08-04T19:40:00.160Z,19.31
2023-08-04T19:45:00.089Z,19.31
2023-08-04T19:50:00.169Z,19.31
2023-08-04T19:55:00.160Z,19.25
2023-08-04T20:00:00.212Z,19.19
2023-08-04T20:05:00.110Z,19.19
2023-08-04T20:10:00.452Z,19.19
2023-08-04T20:15:00.144Z,19.19
2023-08-04T20:20:00.120Z,19.13
2023-08-04T20:25:00.115Z,19.13
2023-08-04T20:30:00.173Z,19.06
2023-08-04T20:35:00.102Z,19.06
2023-08-04T20:40:00.194Z,19.06
2023-08-04T20:45:00.112Z,19.06
2023-08-04T20:50:00.143Z,19.06
2023-08-04T20:55:00.139Z,19.06
2023-08-04T21:00:00.248Z,19
2023-08-04T21:05:00.170Z,18.94
2023-08-04T21:10:00.162Z,18.88
2023-08-04T21:15:00.098Z,18.88
2023-08-04T21:20:00.212Z,18.88
2023-08-04T21:25:00.120Z,18.81
2023-08-04T21:30:00.182Z,18.88
2023-08-04T21:35:00.135Z,18.88
2023-08-04T21:40:00.174Z,18.75
2023-08-04T21:45:00.121Z,18.63
2023-08-04T21:50:00.184Z,18.56
2023-08-04T21:55:00.134Z,18.56
2023-08-04T22:00:00.278Z,18.56
2023-08-04T22:05:00.114Z,18.63
2023-08-04T22:10:00.135Z,18.63
2023-08-04T22:15:00.153Z,18.56
2023-08-04T22:20:00.160Z,18.5
2023-08-04T22:25:00.179Z,18.44
2023-08-04T22:30:00.212Z,18.44
2023-08-04T22:35:00.160Z,18.38
2023-08-04T22:40:00.163Z,18.31
2023-08-04T22:45:00.168Z,18.25
2023-08-04T22:50:00.169Z,18.06
2023-08-04T22:55:00.130Z,17.81
2023-08-04T23:00:00.173Z,17.63
2023-08-04T23:05:00.136Z,17.5
2023-08-04T23:10:00.216Z,17.63
2023-08-04T23:15:00.095Z,17.75
2023-08-04T23:20:00.123Z,17.88
2023-08-04T23:25:00.141Z,17.88
2023-08-04T23:30:00.183Z,17.88
2023-08-04T23:35:00.130Z,17.88
2023-08-04T23:40:00.126Z,17.94
2023-08-04T23:45:00.154Z,17.81
2023-08-04T23:50:00.166Z,17.69
2023-08-04T23:55:00.154Z,17.63
